Terminal Aerodrome Forecast
Issued by NWS

Home | Current Version | Previous Version | Text Only | Print | Product List | Glossary On
Versions: 1 2 3 4 5 6 7 8 9 10 11 12 13 14 15 16 17 18
000
FTUS44 KLZK 211100 RRA
TAFLLQ
TAF
KLLQ 211159Z 2112/2212 33003KT 4SM BR VCSH BKN060 BKN080
      TEMPO 2114/2118 -SHRA SCT015 BKN035
     FM211800 16006KT P6SM VCSH OVC050
     FM220000 14004KT P6SM BKN050=

USA.gov is the U.S. government's official web portal to all federal, state and local government web resources and services.